Time;durP1;ratioP1;P1;durP2;ratioP2;P2;SDS_P1;SDS_P2;PMS_P1;PMS_P2;Temp;Humidity;BMP_temperature;BMP_pressure;BME280_temperature;BME280_humidity;BME280_pressure;Samples;Min_cycle;Max_cycle;Signal;HPM_P1;HPM_P2
2021/12/23 00:01:06;;;;;;;45.10;23.40;;;0.80;99.90;;;;;;5082208;28;20032;-73
2021/12/23 00:03:31;;;;;;;52.55;24.73;;;0.80;99.90;;;;;;5085977;28;20043;-73
2021/12/23 00:05:57;;;;;;;47.00;22.80;;;0.80;99.90;;;;;;5080347;28;20460;-72
2021/12/23 00:08:23;;;;;;;46.50;22.98;;;0.70;99.90;;;;;;5082253;28;20400;-73
2021/12/23 00:10:49;;;;;;;49.25;24.10;;;0.70;99.90;;;;;;5078422;28;20052;-73
2021/12/23 00:13:15;;;;;;;46.42;22.95;;;0.80;99.90;;;;;;5083964;28;20028;-73
2021/12/23 00:23:46;;;;;;;45.55;22.65;;;0.70;99.90;;;;;;5079428;28;20507;-74
2021/12/23 00:26:12;;;;;;;39.85;20.98;;;0.70;99.90;;;;;;5081148;28;20520;-73
2021/12/23 00:28:37;;;;;;;42.72;20.30;;;0.70;99.90;;;;;;5082920;28;20031;-74
2021/12/23 00:31:04;;;;;;;49.25;24.83;;;0.50;99.90;;;;;;5080847;28;20033;-73
2021/12/23 00:33:30;;;;;;;46.30;22.63;;;0.50;99.90;;;;;;5081916;28;20123;-73
2021/12/23 00:35:58;;;;;;;44.03;23.38;;;0.60;99.90;;;;;;5088472;28;20391;-73
2021/12/23 00:38:32;;;;;;;51.67;26.77;;;0.70;99.90;;;;;;5082633;28;20161;-73
2021/12/23 00:41:00;;;;;;;47.03;26.00;;;0.60;99.90;;;;;;5079491;28;20029;-73
2021/12/23 00:43:26;;;;;;;46.05;25.35;;;0.60;99.90;;;;;;5075142;28;20621;-73
2021/12/23 00:45:52;;;;;;;41.92;23.25;;;0.50;99.90;;;;;;5084142;28;20063;-73
2021/12/23 00:48:18;;;;;;;47.60;24.73;;;0.50;99.90;;;;;;5076487;28;20139;-73
2021/12/23 00:50:46;;;;;;;47.53;25.35;;;0.50;99.90;;;;;;5086354;28;20103;-73
2021/12/23 00:53:16;;;;;;;46.60;25.15;;;0.50;99.90;;;;;;5083954;28;20028;-73
2021/12/23 00:55:42;;;;;;;40.80;20.45;;;0.50;99.90;;;;;;5090169;28;20032;-73
2021/12/23 00:58:08;;;;;;;42.88;22.27;;;0.50;99.90;;;;;;5078261;28;20444;-73
2021/12/23 01:00:33;;;;;;;49.45;23.80;;;0.50;99.90;;;;;;5084427;28;20495;-73
2021/12/23 01:03:03;;;;;;;45.78;22.95;;;0.40;99.90;;;;;;5083968;28;20437;-73
2021/12/23 01:05:29;;;;;;;45.45;23.63;;;0.50;99.90;;;;;;5083327;28;20029;-73
2021/12/23 01:07:55;;;;;;;49.60;24.67;;;0.60;99.90;;;;;;5083271;28;20032;-73
2021/12/23 01:10:23;;;;;;;46.38;24.38;;;0.60;99.90;;;;;;5087104;28;20081;-73
2021/12/23 01:12:53;;;;;;;46.25;24.77;;;0.60;99.90;;;;;;5081511;28;20400;-73
2021/12/23 01:18:12;;;;;;;47.67;24.30;;;0.70;99.90;;;;;;5083199;28;20044;-73
2021/12/23 01:21:02;;;;;;;49.78;25.10;;;0.80;99.90;;;;;;5079062;28;20447;-74
2021/12/23 01:23:29;;;;;;;51.03;24.95;;;0.80;99.90;;;;;;5082907;28;20507;-73
2021/12/23 01:25:55;;;;;;;46.72;24.42;;;0.80;99.90;;;;;;5077970;28;20024;-73
2021/12/23 01:28:21;;;;;;;49.05;26.33;;;0.80;99.90;;;;;;5081131;28;20047;-73
2021/12/23 01:30:47;;;;;;;53.92;26.88;;;0.80;99.90;;;;;;5078205;28;20028;-73
2021/12/23 01:33:13;;;;;;;48.33;26.15;;;0.80;99.90;;;;;;5079984;28;20040;-73
2021/12/23 01:35:40;;;;;;;58.85;26.67;;;0.70;99.90;;;;;;5081133;28;20166;-73
2021/12/23 01:38:07;;;;;;;51.08;25.33;;;0.80;99.90;;;;;;5080699;28;20078;-73
2021/12/23 01:40:33;;;;;;;49.30;24.77;;;0.80;99.90;;;;;;5082132;28;20016;-74
2021/12/23 01:42:59;;;;;;;46.97;24.00;;;0.90;99.90;;;;;;5081959;28;20028;-74
2021/12/23 01:45:30;;;;;;;48.75;24.98;;;0.80;99.90;;;;;;5084009;28;20061;-73
2021/12/23 01:47:57;;;;;;;46.03;22.95;;;0.90;99.90;;;;;;5081604;28;20029;-73
2021/12/23 01:50:27;;;;;;;47.72;24.70;;;1.00;99.90;;;;;;5080309;28;20024;-73
2021/12/23 01:52:54;;;;;;;47.95;24.48;;;1.00;99.90;;;;;;5080745;28;20409;-73
2021/12/23 01:55:20;;;;;;;48.47;23.88;;;1.00;99.90;;;;;;5082123;28;20043;-73
2021/12/23 01:57:48;;;;;;;48.40;24.35;;;1.00;99.90;;;;;;5076821;28;20028;-73
2021/12/23 02:00:16;;;;;;;40.92;22.20;;;0.90;99.90;;;;;;5078074;28;20016;-73
2021/12/23 02:02:42;;;;;;;44.20;25.92;;;0.90;99.90;;;;;;5075178;28;20024;-74
2021/12/23 02:05:09;;;;;;;51.40;26.00;;;0.80;99.90;;;;;;5077105;28;20029;-72
2021/12/23 02:07:35;;;;;;;49.95;25.63;;;0.80;99.90;;;;;;5078500;28;20024;-73
2021/12/23 02:10:02;;;;;;;49.03;24.48;;;1.00;99.90;;;;;;5080116;28;20480;-73
2021/12/23 02:12:28;;;;;;;46.83;23.15;;;1.00;99.90;;;;;;5082119;28;21111;-73
2021/12/23 02:14:54;;;;;;;48.15;25.13;;;0.90;99.90;;;;;;5080591;28;20530;-72
2021/12/23 02:17:20;;;;;;;47.45;23.55;;;1.00;99.90;;;;;;5080113;28;20051;-73
2021/12/23 02:19:45;;;;;;;47.75;24.00;;;1.00;99.90;;;;;;5077039;28;20113;-73
2021/12/23 02:22:11;;;;;;;51.67;22.42;;;1.00;99.90;;;;;;5078259;28;20024;-73
2021/12/23 02:24:37;;;;;;;45.28;23.92;;;0.90;99.90;;;;;;5082004;28;20476;-73
2021/12/23 02:27:03;;;;;;;48.33;24.17;;;0.80;99.90;;;;;;5079354;28;20035;-72
2021/12/23 02:29:29;;;;;;;48.97;23.88;;;0.90;99.90;;;;;;5081515;28;20028;-73
2021/12/23 02:31:55;;;;;;;47.92;23.80;;;0.90;99.90;;;;;;5082060;28;20078;-72
2021/12/23 02:34:22;;;;;;;50.08;26.73;;;0.90;99.90;;;;;;5078034;28;20036;-73
2021/12/23 02:36:52;;;;;;;47.13;25.10;;;0.90;99.90;;;;;;5075908;28;20419;-73
2021/12/23 02:39:19;;;;;;;47.97;23.75;;;0.90;99.90;;;;;;5082873;28;20142;-72
2021/12/23 02:41:45;;;;;;;44.17;22.02;;;0.80;99.90;;;;;;5077324;28;20077;-72
2021/12/23 02:44:12;;;;;;;45.85;24.30;;;0.80;99.90;;;;;;5076175;28;20419;-74
2021/12/23 02:46:38;;;;;;;45.55;22.40;;;0.70;99.90;;;;;;5077963;28;20032;-72
2021/12/23 02:49:04;;;;;;;46.28;24.55;;;0.70;99.90;;;;;;5075186;28;20025;-72
2021/12/23 02:51:30;;;;;;;47.03;23.98;;;0.70;99.90;;;;;;5076723;28;20090;-72
2021/12/23 02:53:56;;;;;;;46.28;25.52;;;0.70;99.90;;;;;;5079487;28;20024;-72
2021/12/23 02:56:21;;;;;;;50.03;27.65;;;0.80;99.90;;;;;;5080842;28;20021;-72
2021/12/23 02:58:47;;;;;;;50.45;26.23;;;0.70;99.90;;;;;;5078367;28;20436;-73
2021/12/23 03:01:14;;;;;;;54.13;27.75;;;0.80;99.90;;;;;;5077972;28;20111;-72
2021/12/23 03:03:40;;;;;;;52.15;25.95;;;0.80;99.90;;;;;;5080967;28;20032;-72
2021/12/23 03:06:06;;;;;;;45.17;25.27;;;0.80;99.90;;;;;;5081203;28;20027;-72
2021/12/23 03:08:44;;;;;;;46.95;24.58;;;0.90;99.90;;;;;;5078537;28;20013;-72
2021/12/23 03:11:13;;;;;;;49.63;25.60;;;0.90;99.90;;;;;;5080772;28;20476;-72
2021/12/23 03:13:40;;;;;;;46.15;24.15;;;0.90;99.90;;;;;;5080325;28;20419;-73
2021/12/23 03:16:06;;;;;;;44.83;23.80;;;0.90;99.90;;;;;;5077601;28;20048;-72
2021/12/23 03:18:32;;;;;;;44.15;23.73;;;0.90;99.90;;;;;;5080690;28;20028;-72
2021/12/23 03:20:59;;;;;;;54.45;27.70;;;0.90;99.90;;;;;;5082320;28;20538;-72
2021/12/23 03:23:25;;;;;;;49.97;25.50;;;0.80;99.90;;;;;;5081831;28;20483;-73
2021/12/23 03:25:51;;;;;;;48.50;25.73;;;0.90;99.90;;;;;;5084792;28;20027;-72
2021/12/23 03:28:17;;;;;;;50.58;26.67;;;0.90;99.90;;;;;;5077804;28;20143;-72
2021/12/23 03:30:43;;;;;;;43.75;23.35;;;1.00;99.90;;;;;;5079942;28;20469;-72
2021/12/23 03:33:09;;;;;;;46.83;25.73;;;1.00;99.90;;;;;;5078462;28;20191;-72
2021/12/23 03:35:35;;;;;;;42.70;22.15;;;1.10;99.90;;;;;;5082467;28;20388;-72
2021/12/23 03:38:00;;;;;;;42.47;22.20;;;1.10;99.90;;;;;;5084652;28;20150;-72
2021/12/23 03:40:27;;;;;;;44.00;23.15;;;1.10;99.90;;;;;;5079174;28;20085;-72
2021/12/23 03:42:53;;;;;;;43.80;22.85;;;1.00;99.90;;;;;;5084274;28;20086;-73
2021/12/23 03:45:18;;;;;;;45.47;24.95;;;1.00;99.90;;;;;;5079259;28;20028;-72
2021/12/23 03:47:48;;;;;;;44.78;24.35;;;1.00;99.90;;;;;;5081835;28;20035;-72
2021/12/23 03:50:17;;;;;;;46.97;24.60;;;1.00;99.90;;;;;;5078919;28;20085;-72
2021/12/23 03:52:43;;;;;;;45.45;25.40;;;0.90;99.90;;;;;;5081512;28;20055;-72
2021/12/23 03:55:10;;;;;;;47.05;24.85;;;1.00;99.90;;;;;;5081795;28;20025;-72
2021/12/23 03:57:36;;;;;;;48.60;26.52;;;1.00;99.90;;;;;;5084400;28;20444;-73
2021/12/23 04:00:06;;;;;;;47.00;25.67;;;0.90;99.90;;;;;;5077311;28;20032;-72
2021/12/23 04:02:32;;;;;;;46.15;24.88;;;0.90;99.90;;;;;;5084997;28;20043;-72
2021/12/23 04:04:58;;;;;;;46.95;24.52;;;0.90;99.90;;;;;;5080691;28;20040;-72
2021/12/23 04:07:24;;;;;;;46.88;24.40;;;1.00;99.90;;;;;;5086106;28;20056;-72
2021/12/23 04:09:49;;;;;;;48.67;26.20;;;0.90;99.90;;;;;;5084798;28;20039;-72
2021/12/23 04:12:15;;;;;;;45.65;24.70;;;1.00;99.90;;;;;;5083648;28;20040;-72
2021/12/23 04:14:41;;;;;;;47.25;24.77;;;1.00;99.90;;;;;;5085843;28;20021;-72
2021/12/23 04:17:06;;;;;;;42.67;24.25;;;1.00;99.90;;;;;;5083518;28;20444;-72
2021/12/23 04:19:33;;;;;;;48.90;26.35;;;0.80;99.90;;;;;;5085835;28;20374;-72
2021/12/23 04:21:59;;;;;;;53.00;26.08;;;0.80;99.90;;;;;;5084520;28;20059;-72
2021/12/23 04:24:25;;;;;;;51.53;26.30;;;0.80;99.90;;;;;;5082405;28;20036;-72
2021/12/23 04:26:52;;;;;;;48.63;26.52;;;0.80;99.90;;;;;;5083801;28;20047;-72
2021/12/23 04:29:18;;;;;;;45.75;23.58;;;0.90;99.90;;;;;;5084532;28;20063;-73
2021/12/23 04:31:44;;;;;;;48.20;25.65;;;0.90;99.90;;;;;;5081792;28;20040;-72
2021/12/23 04:34:09;;;;;;;52.95;26.70;;;0.90;99.90;;;;;;5083691;28;20043;-72
2021/12/23 04:36:35;;;;;;;47.03;25.17;;;0.80;99.90;;;;;;5081085;28;20067;-73
2021/12/23 04:39:01;;;;;;;51.63;27.33;;;0.80;99.90;;;;;;5082208;28;20033;-73
2021/12/23 04:41:28;;;;;;;50.95;27.15;;;0.80;99.90;;;;;;5083424;28;20676;-73
2021/12/23 04:43:54;;;;;;;63.13;30.35;;;0.90;99.90;;;;;;5082023;28;20032;-72
2021/12/23 04:46:20;;;;;;;53.20;27.52;;;0.90;99.90;;;;;;5081030;28;20040;-72
2021/12/23 04:48:47;;;;;;;51.92;28.33;;;0.90;99.90;;;;;;5083129;28;20020;-73
2021/12/23 04:51:14;;;;;;;49.83;26.90;;;0.90;99.90;;;;;;5079822;28;20035;-73
2021/12/23 04:53:40;;;;;;;51.28;27.63;;;1.00;99.90;;;;;;5081751;28;20032;-72
2021/12/23 04:56:06;;;;;;;51.38;27.95;;;1.00;99.90;;;;;;5084199;28;20178;-73
2021/12/23 04:58:32;;;;;;;45.90;25.75;;;1.00;99.90;;;;;;5081648;28;20452;-72
2021/12/23 05:00:58;;;;;;;46.72;26.35;;;1.00;99.90;;;;;;5086402;28;20035;-72
2021/12/23 05:03:25;;;;;;;53.78;26.85;;;1.00;99.90;;;;;;5082811;28;20119;-72
2021/12/23 05:05:51;;;;;;;48.45;26.45;;;1.00;99.90;;;;;;5084206;28;20021;-73
2021/12/23 05:08:17;;;;;;;56.38;28.38;;;1.00;99.90;;;;;;5085745;28;20044;-72
2021/12/23 05:10:43;;;;;;;54.70;26.45;;;1.00;99.90;;;;;;5082990;28;20056;-73
2021/12/23 05:13:09;;;;;;;52.33;26.08;;;1.00;99.90;;;;;;5088332;28;20028;-73
2021/12/23 05:15:36;;;;;;;50.30;25.55;;;0.90;99.90;;;;;;5082242;28;20077;-72
2021/12/23 05:18:02;;;;;;;53.75;27.80;;;1.00;99.90;;;;;;5087057;28;20031;-72
2021/12/23 05:20:28;;;;;;;55.45;27.90;;;1.00;99.90;;;;;;5084044;28;20380;-73
2021/12/23 05:22:54;;;;;;;62.70;30.02;;;1.10;99.90;;;;;;5081990;28;20015;-73
2021/12/23 05:25:20;;;;;;;68.45;31.63;;;1.00;99.90;;;;;;5079381;28;20024;-73
2021/12/23 05:27:47;;;;;;;56.80;28.45;;;1.10;99.90;;;;;;5082560;28;20024;-72
2021/12/23 05:30:16;;;;;;;60.00;30.15;;;1.10;99.90;;;;;;5087304;28;20114;-72
2021/12/23 05:32:43;;;;;;;62.13;29.60;;;1.10;99.90;;;;;;5082203;28;20061;-72
2021/12/23 05:35:10;;;;;;;55.58;28.75;;;1.20;99.90;;;;;;5082326;28;20035;-72
2021/12/23 05:37:37;;;;;;;53.85;27.52;;;1.20;99.90;;;;;;5082653;28;20032;-74
2021/12/23 05:40:04;;;;;;;54.20;28.20;;;1.10;99.90;;;;;;5083270;28;20039;-73
2021/12/23 05:42:30;;;;;;;58.53;28.50;;;1.10;99.90;;;;;;5081042;28;20031;-72
2021/12/23 05:44:55;;;;;;;60.17;29.88;;;1.10;99.90;;;;;;5083198;28;20035;-73
2021/12/23 05:47:21;;;;;;;65.13;30.98;;;1.20;99.90;;;;;;5078928;28;20032;-72
2021/12/23 05:49:47;;;;;;;60.47;29.65;;;1.30;99.90;;;;;;5084843;28;20449;-72
2021/12/23 05:52:13;;;;;;;57.28;30.35;;;1.20;99.90;;;;;;5080332;28;20040;-72
2021/12/23 05:54:38;;;;;;;62.25;30.40;;;1.20;99.90;;;;;;5088111;28;20453;-72
2021/12/23 05:57:04;;;;;;;63.72;30.38;;;1.20;99.90;;;;;;5083953;28;20042;-72
2021/12/23 05:59:31;;;;;;;65.40;30.20;;;1.20;99.90;;;;;;5083852;28;20484;-72
2021/12/23 06:01:58;;;;;;;57.10;28.88;;;1.20;99.90;;;;;;5083889;28;20059;-72
2021/12/23 06:04:25;;;;;;;59.17;29.65;;;1.30;99.90;;;;;;5078540;28;20119;-72
2021/12/23 06:06:51;;;;;;;60.75;30.88;;;1.30;99.90;;;;;;5083120;28;20051;-72
2021/12/23 06:09:17;;;;;;;54.70;27.95;;;1.30;99.90;;;;;;5081758;28;20025;-72
2021/12/23 06:11:42;;;;;;;62.42;31.30;;;1.30;99.90;;;;;;5082962;28;20041;-72
2021/12/23 06:14:08;;;;;;;67.43;31.38;;;1.30;99.90;;;;;;5083598;28;20415;-73
2021/12/23 06:16:34;;;;;;;63.42;31.77;;;1.30;99.90;;;;;;5080160;28;20021;-72
2021/12/23 06:18:59;;;;;;;60.45;30.05;;;1.40;99.90;;;;;;5079038;28;20021;-73
2021/12/23 06:21:28;;;;;;;59.65;27.92;;;1.40;99.90;;;;;;5082541;28;20542;-72
2021/12/23 06:23:55;;;;;;;65.03;30.40;;;1.40;99.90;;;;;;5078203;28;20448;-73
2021/12/23 06:26:21;;;;;;;57.78;30.27;;;1.40;99.90;;;;;;5079474;28;20380;-73
2021/12/23 06:28:48;;;;;;;61.35;30.50;;;1.40;99.90;;;;;;5081402;28;20073;-72
2021/12/23 06:31:14;;;;;;;61.40;30.23;;;1.40;99.90;;;;;;5082796;28;20078;-73
2021/12/23 06:33:39;;;;;;;63.15;30.70;;;1.40;99.90;;;;;;5086185;28;20028;-72
2021/12/23 06:36:05;;;;;;;73.90;31.52;;;1.40;99.90;;;;;;5081910;28;20030;-72
2021/12/23 06:38:31;;;;;;;67.13;32.80;;;1.30;99.90;;;;;;5082644;28;20032;-73
2021/12/23 06:40:57;;;;;;;65.18;31.52;;;1.30;99.90;;;;;;5079209;28;20024;-73
2021/12/23 06:43:23;;;;;;;71.20;31.70;;;1.30;99.90;;;;;;5082717;28;20472;-73
2021/12/23 06:45:49;;;;;;;67.18;32.10;;;1.40;99.90;;;;;;5079206;28;20029;-73
2021/12/23 06:48:14;;;;;;;68.30;32.97;;;1.40;99.90;;;;;;5082838;28;20025;-73
2021/12/23 06:50:40;;;;;;;63.45;29.17;;;1.40;99.90;;;;;;5077937;28;20103;-73
2021/12/23 06:53:06;;;;;;;66.95;31.60;;;1.40;99.90;;;;;;5081412;28;20083;-73
2021/12/23 06:55:32;;;;;;;65.47;31.00;;;1.40;99.90;;;;;;5086789;28;20024;-73
2021/12/23 06:57:58;;;;;;;63.08;30.88;;;1.40;99.90;;;;;;5082921;28;20054;-73
2021/12/23 07:00:28;;;;;;;68.93;33.63;;;1.40;99.90;;;;;;5081623;28;20047;-73
2021/12/23 07:02:55;;;;;;;72.28;34.40;;;1.40;99.90;;;;;;5082177;28;20028;-73
2021/12/23 07:05:22;;;;;;;71.20;33.15;;;1.50;99.90;;;;;;5076587;28;20032;-73
2021/12/23 07:07:55;;;;;;;70.32;33.80;;;1.50;99.90;;;;;;5080146;28;20368;-74
2021/12/23 07:10:21;;;;;;;;;;;1.50;99.90;;;;;;5081105;28;20020;-75
2021/12/23 07:12:47;;;;;;;61.90;28.60;;;1.50;99.90;;;;;;5084601;28;19920;-74
2021/12/23 07:15:13;;;;;;;66.45;30.98;;;1.60;99.90;;;;;;5080576;28;20027;-73
2021/12/23 07:17:39;;;;;;;63.20;31.00;;;1.60;99.90;;;;;;5080806;28;20060;-74
2021/12/23 07:20:06;;;;;;;69.75;32.10;;;1.60;99.90;;;;;;5083567;28;20443;-73
2021/12/23 07:22:31;;;;;;;65.78;30.92;;;1.50;99.90;;;;;;5081676;28;20028;-73
2021/12/23 07:24:57;;;;;;;66.70;31.52;;;1.40;99.90;;;;;;5080781;28;20028;-73
2021/12/23 07:27:23;;;;;;;68.78;33.97;;;1.40;99.90;;;;;;5078588;28;20039;-73
2021/12/23 07:29:48;;;;;;;68.78;34.38;;;1.50;99.90;;;;;;5081956;28;20032;-73
2021/12/23 07:32:14;;;;;;;72.80;34.05;;;1.50;99.90;;;;;;5079067;28;20044;-73
2021/12/23 07:34:42;;;;;;;79.05;36.05;;;1.60;99.90;;;;;;5078807;28;20433;-74
2021/12/23 07:37:12;;;;;;;74.43;33.88;;;1.60;99.90;;;;;;5087011;28;20031;-73
2021/12/23 07:39:38;;;;;;;70.40;33.50;;;1.60;99.90;;;;;;5084998;28;20044;-74
2021/12/23 07:42:06;;;;;;;70.40;32.88;;;1.60;99.90;;;;;;5085878;28;20086;-74
2021/12/23 07:44:33;;;;;;;74.40;34.53;;;1.60;99.90;;;;;;5084182;28;20416;-73
2021/12/23 07:46:59;;;;;;;101.70;45.83;;;1.60;99.90;;;;;;5085173;28;20474;-73
2021/12/23 07:49:25;;;;;;;78.68;33.58;;;1.50;99.90;;;;;;5084797;28;20064;-73
2021/12/23 07:51:50;;;;;;;77.72;34.13;;;1.50;99.90;;;;;;5083607;28;20048;-72
2021/12/23 07:54:17;;;;;;;80.25;35.38;;;1.50;99.90;;;;;;5087055;28;20040;-74
2021/12/23 07:56:42;;;;;;;74.55;33.65;;;1.50;99.90;;;;;;5081389;28;20020;-78
2021/12/23 07:59:08;;;;;;;80.55;34.88;;;1.50;99.90;;;;;;5083818;28;20040;-78
2021/12/23 08:01:34;;;;;;;81.82;36.53;;;1.60;99.90;;;;;;5080094;28;20103;-79
2021/12/23 08:03:59;;;;;;;72.88;34.03;;;1.70;99.90;;;;;;5085069;28;20046;-78
2021/12/23 08:06:26;;;;;;;79.60;36.47;;;1.70;99.90;;;;;;5079485;28;20488;-79
2021/12/23 08:08:52;;;;;;;69.57;34.20;;;1.70;99.90;;;;;;5086936;28;20032;-78
2021/12/23 08:11:17;;;;;;;76.38;32.88;;;1.80;99.90;;;;;;5084156;28;20029;-79
2021/12/23 08:13:43;;;;;;;72.65;33.13;;;1.80;99.90;;;;;;5085446;28;20388;-79
2021/12/23 08:16:09;;;;;;;78.88;34.03;;;1.80;99.90;;;;;;5084739;28;20179;-80
2021/12/23 08:18:34;;;;;;;79.40;34.92;;;1.90;99.90;;;;;;5084102;28;20484;-80
2021/12/23 08:21:01;;;;;;;68.10;32.65;;;1.90;99.90;;;;;;5084417;28;20032;-78
2021/12/23 08:23:27;;;;;;;71.50;33.75;;;1.90;99.90;;;;;;5089547;28;20052;-79
2021/12/23 08:25:54;;;;;;;70.95;32.58;;;1.90;99.90;;;;;;5080172;28;20059;-79
2021/12/23 08:28:19;;;;;;;72.25;33.83;;;1.90;99.90;;;;;;5081608;28;20085;-79
2021/12/23 08:30:45;;;;;;;75.35;35.67;;;1.90;99.90;;;;;;5080508;28;20028;-80
2021/12/23 08:33:11;;;;;;;78.40;34.55;;;1.90;99.90;;;;;;5090001;28;20028;-80
2021/12/23 08:35:37;;;;;;;75.75;34.60;;;2.00;99.90;;;;;;5081448;28;20048;-80
2021/12/23 08:38:05;;;;;;;66.57;31.25;;;2.00;99.90;;;;;;5085724;28;20436;-80
2021/12/23 08:40:31;;;;;;;74.07;33.33;;;1.90;99.90;;;;;;5079545;28;20063;-81
2021/12/23 08:42:59;;;;;;;74.75;34.35;;;1.90;99.90;;;;;;5081042;28;20437;-77
2021/12/23 08:45:26;;;;;;;70.18;32.50;;;2.00;99.90;;;;;;5085308;28;20025;-78
2021/12/23 08:47:56;;;;;;;71.45;33.83;;;2.00;99.90;;;;;;5081172;28;20046;-79
2021/12/23 08:50:24;;;;;;;72.13;32.85;;;2.10;99.90;;;;;;5086799;28;20130;-80
2021/12/23 08:52:51;;;;;;;85.38;36.85;;;2.10;99.90;;;;;;5077810;28;20109;-80
2021/12/23 08:55:18;;;;;;;76.63;36.78;;;2.10;99.90;;;;;;5078582;28;20024;-82
2021/12/23 08:57:44;;;;;;;78.53;36.08;;;2.20;99.90;;;;;;5082356;28;20021;-78
2021/12/23 09:00:14;;;;;;;85.25;35.22;;;2.20;99.90;;;;;;5082637;28;20489;-77
2021/12/23 09:02:40;;;;;;;71.07;32.55;;;2.30;99.90;;;;;;5077223;28;20062;-76
2021/12/23 09:05:06;;;;;;;74.03;34.67;;;2.30;99.90;;;;;;5082143;28;20503;-77
2021/12/23 09:07:31;;;;;;;72.47;33.33;;;2.40;99.90;;;;;;5083391;28;20024;-77
2021/12/23 09:09:57;;;;;;;78.20;35.22;;;2.40;99.90;;;;;;5085815;28;20035;-77
2021/12/23 09:12:23;;;;;;;79.97;36.35;;;2.40;99.90;;;;;;5084525;28;20043;-78
2021/12/23 09:14:49;;;;;;;70.97;34.10;;;2.40;99.90;;;;;;5082059;28;20021;-78
2021/12/23 09:17:16;;;;;;;65.50;32.38;;;2.40;99.90;;;;;;5083085;28;20043;-76
2021/12/23 09:19:42;;;;;;;78.32;35.65;;;2.50;99.90;;;;;;5082132;28;20027;-78
2021/12/23 09:22:09;;;;;;;78.45;38.20;;;2.50;99.90;;;;;;5084561;28;20100;-78
2021/12/23 09:24:36;;;;;;;66.97;32.97;;;2.50;99.90;;;;;;5079529;28;20024;-78
2021/12/23 09:27:17;;;;;;;79.85;37.97;;;2.50;99.90;;;;;;5083824;28;20030;-77
2021/12/23 09:34:55;;;;;;;76.05;31.83;;;2.70;99.90;;;;;;5078874;28;20098;-77
2021/12/23 09:37:22;;;;;;;74.10;34.70;;;2.70;99.90;;;;;;5083986;28;20036;-77
2021/12/23 09:39:53;;;;;;;74.57;35.47;;;2.70;99.90;;;;;;5081529;28;20045;-77
2021/12/23 09:42:23;;;;;;;79.07;36.42;;;2.70;99.90;;;;;;5089000;28;20031;-78
2021/12/23 09:44:50;;;;;;;75.78;33.65;;;2.80;99.90;;;;;;5079344;28;20057;-77
2021/12/23 09:47:16;;;;;;;79.90;37.50;;;2.70;99.90;;;;;;5075896;28;20032;-76
2021/12/23 09:49:42;;;;;;;78.63;35.35;;;2.70;99.90;;;;;;5078448;28;20016;-77
2021/12/23 09:52:08;;;;;;;82.28;35.95;;;2.70;99.90;;;;;;5081799;28;20109;-77
2021/12/23 09:54:38;;;;;;;82.82;35.95;;;2.70;99.90;;;;;;5082892;28;20034;-76
2021/12/23 09:57:04;;;;;;;71.00;32.45;;;2.70;99.90;;;;;;5082608;28;20029;-76
2021/12/23 09:59:30;;;;;;;68.70;31.48;;;2.70;99.90;;;;;;5077044;28;20059;-76
2021/12/23 10:01:56;;;;;;;75.47;32.58;;;2.70;99.90;;;;;;5077912;28;20094;-76
2021/12/23 10:04:21;;;;;;;81.43;35.28;;;2.80;99.90;;;;;;5079774;28;20032;-78
2021/12/23 10:06:48;;;;;;;71.65;33.67;;;2.80;99.90;;;;;;5079124;28;20484;-77
2021/12/23 10:09:25;;;;;;;79.47;38.50;;;2.90;99.90;;;;;;5081722;28;20032;-78
2021/12/23 10:12:38;;;;;;;80.75;35.78;;;2.90;99.90;;;;;;5080637;28;20024;-78
2021/12/23 10:31:44;;;;;;;61.72;27.13;;;3.10;99.90;;;;;;5081232;28;20293;-77
2021/12/23 10:37:23;;;;;;;64.97;29.50;;;3.20;99.90;;;;;;5077493;28;20041;-77
2021/12/23 10:39:51;;;;;;;63.50;29.35;;;3.20;99.90;;;;;;5085561;28;20145;-77
2021/12/23 10:42:23;;;;;;;59.42;27.48;;;3.30;99.90;;;;;;5076338;28;20380;-77
2021/12/23 10:44:55;;;;;;;58.72;27.23;;;3.30;99.90;;;;;;5079056;28;20027;-76
2021/12/23 10:47:45;;;;;;;58.05;27.02;;;3.30;99.90;;;;;;5082902;28;20024;-76
2021/12/23 10:50:30;;;;;;;56.25;25.98;;;3.40;99.90;;;;;;5082127;28;20036;-77
2021/12/23 10:53:04;;;;;;;56.15;24.02;;;3.40;99.90;;;;;;5081205;28;20055;-77
2021/12/23 10:58:17;;;;;;;55.65;25.63;;;3.50;99.90;;;;;;5086918;28;20482;-76
2021/12/23 11:00:50;;;;;;;49.35;25.05;;;3.50;99.90;;;;;;5088967;28;20362;-76
2021/12/23 11:03:24;;;;;;;59.05;25.45;;;3.60;99.90;;;;;;5083742;28;20028;-76
2021/12/23 11:06:00;;;;;;;52.58;25.95;;;3.60;99.90;;;;;;5079253;28;20020;-77
2021/12/23 11:43:59;;;;;;;48.08;23.52;;;4.20;99.90;;;;;;5085863;28;20812;-77
2021/12/23 11:46:36;;;;;;;50.25;24.90;;;4.30;99.90;;;;;;5089304;28;20040;-78
2021/12/23 11:49:07;;;;;;;54.47;25.20;;;4.30;99.90;;;;;;5087262;28;20059;-78
2021/12/23 11:51:45;;;;;;;50.88;23.73;;;4.30;99.90;;;;;;5092651;28;20031;-78
2021/12/23 11:54:14;;;;;;;53.55;25.58;;;4.40;99.90;;;;;;5081564;28;20089;-78
2021/12/23 11:56:50;;;;;;;49.70;23.15;;;4.40;99.90;;;;;;5084423;28;20098;-77
2021/12/23 11:59:17;;;;;;;50.88;24.75;;;4.40;99.90;;;;;;5085792;28;20874;-76
2021/12/23 12:01:47;;;;;;;47.78;23.35;;;4.40;99.90;;;;;;5086372;28;20035;-75
2021/12/23 12:04:28;;;;;;;50.30;24.25;;;4.40;99.90;;;;;;5087466;28;20046;-76
2021/12/23 12:06:55;;;;;;;49.30;24.33;;;4.50;99.90;;;;;;5082397;28;20028;-76
2021/12/23 12:09:28;;;;;;;51.22;26.05;;;4.60;99.90;;;;;;5087176;28;20016;-76
2021/12/23 12:11:59;;;;;;;51.90;26.20;;;4.60;99.90;;;;;;5082160;28;20040;-76
2021/12/23 12:14:41;;;;;;;51.75;24.88;;;4.60;99.90;;;;;;5084015;28;20043;-75
2021/12/23 12:17:33;;;;;;;52.40;24.45;;;4.60;99.90;;;;;;5079917;28;20126;-76
2021/12/23 12:20:04;;;;;;;50.35;24.23;;;4.70;99.90;;;;;;5083173;28;20059;-76
2021/12/23 12:22:55;;;;;;;47.22;23.80;;;4.70;99.90;;;;;;5083359;28;20033;-75
2021/12/23 12:25:23;;;;;;;51.17;25.20;;;4.80;99.90;;;;;;5081008;28;20028;-76
2021/12/23 12:27:49;;;;;;;50.70;26.45;;;4.80;99.90;;;;;;5083180;28;20056;-76
2021/12/23 12:30:18;;;;;;;48.03;25.58;;;4.90;99.90;;;;;;5083275;28;20027;-76
2021/12/23 12:32:44;;;;;;;52.67;25.63;;;4.90;99.90;;;;;;5077483;28;20060;-76
2021/12/23 12:35:19;;;;;;;56.08;26.48;;;4.90;99.90;;;;;;5077449;28;20036;-77
2021/12/23 12:37:46;;;;;;;47.85;24.40;;;5.00;99.90;;;;;;5086699;28;20591;-77
2021/12/23 12:40:12;;;;;;;54.45;24.90;;;5.00;99.90;;;;;;5081947;28;20372;-76
2021/12/23 12:42:44;;;;;;;49.60;26.27;;;5.10;99.90;;;;;;5084180;28;20028;-80
2021/12/23 12:45:15;;;;;;;49.35;26.48;;;5.10;99.90;;;;;;5082958;28;20123;-78
2021/12/23 12:47:52;;;;;;;53.40;26.55;;;5.20;99.90;;;;;;5077614;28;20101;-77
2021/12/23 12:50:21;;;;;;;53.47;28.00;;;5.20;99.90;;;;;;5080416;28;20028;-78
2021/12/23 12:52:49;;;;;;;50.83;25.05;;;5.20;99.90;;;;;;5084001;28;20524;-78
2021/12/23 12:55:26;;;;;;;51.38;27.30;;;5.30;99.90;;;;;;5081904;28;20059;-77
2021/12/23 12:57:58;;;;;;;54.63;27.27;;;5.30;99.90;;;;;;5081773;28;20108;-77
2021/12/23 13:00:31;;;;;;;53.78;27.58;;;5.40;99.90;;;;;;5074828;28;20107;-77
2021/12/23 13:03:11;;;;;;;48.83;27.50;;;5.50;99.90;;;;;;5044546;28;1133398;-78
2021/12/23 13:05:49;;;;;;;55.65;29.38;;;5.40;99.90;;;;;;5081460;28;21153;-77
2021/12/23 13:08:15;;;;;;;53.75;27.58;;;5.50;99.90;;;;;;5080135;28;20035;-77
2021/12/23 13:10:47;;;;;;;58.38;28.15;;;5.60;99.90;;;;;;5086017;28;20360;-77
2021/12/23 13:13:32;;;;;;;53.75;28.38;;;5.60;99.90;;;;;;5078033;28;20121;-77
2021/12/23 13:16:01;;;;;;;52.40;25.35;;;5.60;99.90;;;;;;5085661;28;20503;-77
2021/12/23 13:18:27;;;;;;;57.30;28.83;;;5.70;99.90;;;;;;5082644;28;20127;-78
2021/12/23 13:20:58;;;;;;;50.40;26.40;;;5.60;99.90;;;;;;5081829;28;20024;-78
2021/12/23 13:23:36;;;;;;;49.17;24.25;;;5.60;99.90;;;;;;5082530;28;20032;-78
2021/12/23 13:26:11;;;;;;;46.33;24.70;;;5.70;99.90;;;;;;5078346;28;20506;-76
2021/12/23 13:28:51;;;;;;;50.35;25.90;;;5.70;99.90;;;;;;5081081;28;20472;-77
2021/12/23 13:31:21;;;;;;;56.17;27.67;;;5.80;99.90;;;;;;5082237;28;20028;-76
2021/12/23 13:33:47;;;;;;;49.38;26.52;;;5.90;99.90;;;;;;5079470;28;20086;-77
2021/12/23 13:36:23;;;;;;;52.80;25.58;;;5.90;99.90;;;;;;5081708;28;20028;-76
2021/12/23 13:38:57;;;;;;;51.72;26.05;;;5.90;99.90;;;;;;5078335;28;20024;-76
2021/12/23 13:41:27;;;;;;;53.38;26.77;;;6.00;99.90;;;;;;5087221;28;20046;-76
2021/12/23 13:43:59;;;;;;;52.47;26.50;;;5.90;99.90;;;;;;5079859;28;20024;-76
2021/12/23 13:46:28;;;;;;;50.47;27.02;;;5.90;99.90;;;;;;5078169;28;20032;-78
2021/12/23 13:49:02;;;;;;;46.28;24.17;;;5.90;99.90;;;;;;5082406;28;20089;-81
2021/12/23 13:51:32;;;;;;;51.35;26.25;;;5.90;99.90;;;;;;5082804;28;20434;-77
2021/12/23 13:54:17;;;;;;;49.53;26.98;;;5.90;99.90;;;;;;5080603;28;20032;-76
2021/12/23 13:56:47;;;;;;;52.08;27.42;;;5.90;99.90;;;;;;5085294;28;20035;-76